createdAt,value
2018-11-06T00:00:32.526Z,79.03
2018-11-06T00:03:07.401Z,78.81
2018-11-06T00:05:36.945Z,78.80
2018-11-06T00:08:06.775Z,78.83
2018-11-06T00:10:36.278Z,79.48
2018-11-06T00:13:05.836Z,80.59
2018-11-06T00:15:35.354Z,81.39
2018-11-06T00:18:04.630Z,81.24
2018-11-06T00:20:35.412Z,81.81
2018-11-06T00:23:04.825Z,81.76
2018-11-06T00:25:34.961Z,81.46
2018-11-06T00:28:04.327Z,81.83
2018-11-06T00:30:33.675Z,81.10
2018-11-06T00:33:03.218Z,80.71
2018-11-06T00:35:32.650Z,80.83
2018-11-06T00:38:01.973Z,81.42
2018-11-06T00:40:31.316Z,82.07
2018-11-06T00:43:00.650Z,81.87
2018-11-06T00:45:29.958Z,82.29
2018-11-06T00:47:59.380Z,83.06
2018-11-06T00:50:28.649Z,83.06
2018-11-06T00:52:58.066Z,84.45
2018-11-06T00:55:27.420Z,84.13
2018-11-06T00:57:56.721Z,83.60
2018-11-06T01:00:26.007Z,83.71
2018-11-06T01:02:55.431Z,84.26
2018-11-06T01:05:24.836Z,85.50
2018-11-06T01:07:54.199Z,85.94
2018-11-06T01:10:23.828Z,85.68
2018-11-06T01:12:53.434Z,85.86
2018-11-06T01:15:23.237Z,86.55
2018-11-06T01:17:52.805Z,86.41
2018-11-06T01:20:22.389Z,86.66
2018-11-06T01:22:52.041Z,85.97
2018-11-06T01:25:21.647Z,86.11
2018-11-06T01:27:51.240Z,86.61
2018-11-06T01:30:21.191Z,86.52
2018-11-06T01:32:50.749Z,86.00
2018-11-06T01:35:20.047Z,85.34
2018-11-06T01:37:49.350Z,86.55
2018-11-06T01:40:19.241Z,85.11
2018-11-06T01:42:48.862Z,85.75
2018-11-06T01:45:19.408Z,84.77
2018-11-06T01:47:48.780Z,84.43
2018-11-06T01:50:18.646Z,84.66
2018-11-06T01:52:48.565Z,84.98
2018-11-06T01:55:17.941Z,84.28
2018-11-06T01:57:47.227Z,84.14
2018-11-06T02:00:17.764Z,85.03
2018-11-06T02:02:47.171Z,85.88
2018-11-06T02:05:17.453Z,86.30
2018-11-06T02:07:47.881Z,86.78
2018-11-06T02:10:17.543Z,86.00
2018-11-06T02:12:47.334Z,86.18
2018-11-06T02:15:16.868Z,85.21
2018-11-06T02:17:46.515Z,85.94
2018-11-06T02:20:16.263Z,86.54
2018-11-06T02:22:46.501Z,87.40
2018-11-06T02:25:15.971Z,86.59
2018-11-06T02:27:45.300Z,86.47
2018-11-06T02:30:15.999Z,86.33
2018-11-06T02:32:46.069Z,86.37
2018-11-06T02:35:15.391Z,86.65
2018-11-06T02:37:44.868Z,87.64
2018-11-06T02:40:15.303Z,87.58
2018-11-06T02:42:44.705Z,88.04
2018-11-06T02:45:14.383Z,87.44
2018-11-06T02:47:44.125Z,88.04
2018-11-06T02:50:14.164Z,87.55
2018-11-06T02:52:43.948Z,87.59
2018-11-06T02:55:13.522Z,87.10
2018-11-06T02:57:43.265Z,87.89
2018-11-06T03:00:15.775Z,87.24
2018-11-06T03:02:45.787Z,88.46
2018-11-06T03:05:15.113Z,87.61
2018-11-06T03:07:44.459Z,86.59
2018-11-06T03:10:14.658Z,87.43
2018-11-06T03:12:44.479Z,87.49
2018-11-06T03:15:14.636Z,87.10
2018-11-06T03:17:44.342Z,86.75
2018-11-06T03:20:14.187Z,87.18
2018-11-06T03:22:44.200Z,88.56
2018-11-06T03:25:13.938Z,88.76
2018-11-06T03:27:43.294Z,88.08
2018-11-06T03:30:14.334Z,87.41
2018-11-06T03:32:43.746Z,88.42
2018-11-06T03:35:13.910Z,89.21
2018-11-06T03:37:43.247Z,88.77
2018-11-06T03:40:13.014Z,89.25
2018-11-06T03:42:42.932Z,87.87
2018-11-06T03:45:13.350Z,89.06
2018-11-06T03:47:42.668Z,87.67
2018-11-06T03:50:12.966Z,88.00
2018-11-06T03:52:42.319Z,87.58
2018-11-06T03:55:11.714Z,86.96
2018-11-06T03:57:41.095Z,86.56
2018-11-06T04:00:13.416Z,85.57
2018-11-06T04:02:43.310Z,86.36
2018-11-06T04:05:12.861Z,86.77
2018-11-06T04:07:42.564Z,87.71
2018-11-06T04:10:12.590Z,87.40
2018-11-06T04:12:42.249Z,87.45
2018-11-06T04:15:12.985Z,87.00
2018-11-06T04:17:43.386Z,87.14
2018-11-06T04:20:12.798Z,88.32
2018-11-06T04:22:42.672Z,87.12
2018-11-06T04:25:12.068Z,87.97
2018-11-06T04:27:41.683Z,87.55
2018-11-06T04:30:13.056Z,88.46
2018-11-06T04:32:43.007Z,88.36
2018-11-06T04:35:12.958Z,87.40
2018-11-06T04:37:42.562Z,87.82
2018-11-06T04:40:13.466Z,87.78
2018-11-06T04:42:42.920Z,87.44
2018-11-06T04:45:12.822Z,87.94
2018-11-06T04:47:42.495Z,87.67
2018-11-06T04:50:12.204Z,87.54
2018-11-06T04:52:41.951Z,87.72
2018-11-06T04:55:12.447Z,87.98
2018-11-06T04:57:42.034Z,88.30
2018-11-06T05:00:13.128Z,87.61
2018-11-06T05:02:43.039Z,88.46
2018-11-06T05:05:12.750Z,88.04
2018-11-06T05:07:42.096Z,87.56
2018-11-06T05:10:14.726Z,87.02
2018-11-06T05:12:44.299Z,87.90
2018-11-06T05:15:14.802Z,87.58
2018-11-06T05:17:44.168Z,87.85
2018-11-06T05:20:18.655Z,88.23
2018-11-06T05:22:48.179Z,87.58
2018-11-06T05:25:17.546Z,87.73
2018-11-06T05:27:47.476Z,87.00
2018-11-06T05:30:16.727Z,86.18
2018-11-06T05:32:46.109Z,87.21
2018-11-06T05:35:15.430Z,87.25
2018-11-06T05:37:44.744Z,86.79
2018-11-06T05:40:54.582Z,86.29
2018-11-06T05:43:23.901Z,84.46
2018-11-06T05:45:53.766Z,86.11
2018-11-06T05:48:23.322Z,86.44
2018-11-06T05:50:52.619Z,86.79
2018-11-06T05:53:22.096Z,85.74
2018-11-06T05:55:51.360Z,85.83
2018-11-06T05:58:20.678Z,85.17
2018-11-06T06:00:50.020Z,85.98
2018-11-06T06:03:19.340Z,86.20
2018-11-06T06:05:48.652Z,85.95
2018-11-06T06:08:17.951Z,85.54
2018-11-06T06:10:47.511Z,85.36
2018-11-06T06:13:16.924Z,85.05
2018-11-06T06:15:46.290Z,85.13
2018-11-06T06:18:15.667Z,84.95
2018-11-06T06:20:45.063Z,84.99
2018-11-06T06:23:14.465Z,85.12
2018-11-06T06:25:43.833Z,85.44
2018-11-06T06:28:13.316Z,85.00
2018-11-06T06:30:42.708Z,84.91
2018-11-06T06:33:12.254Z,84.61
2018-11-06T06:35:41.639Z,85.12
2018-11-06T06:38:10.907Z,84.99
2018-11-06T06:40:40.283Z,85.76
2018-11-06T06:43:09.545Z,85.17
2018-11-06T06:45:38.943Z,84.81
2018-11-06T06:48:08.279Z,83.65
2018-11-06T06:50:37.688Z,83.17
2018-11-06T06:53:07.059Z,83.35
2018-11-06T06:55:36.670Z,82.79
2018-11-06T06:58:06.120Z,82.39
2018-11-06T07:00:35.637Z,81.05
2018-11-06T07:03:04.941Z,79.88
2018-11-06T07:05:34.429Z,76.60
2018-11-06T07:08:03.812Z,74.77
2018-11-06T07:10:33.241Z,71.12
2018-11-06T07:13:02.612Z,68.36
2018-11-06T07:15:32.027Z,67.08
2018-11-06T07:18:01.523Z,65.84
2018-11-06T07:20:30.826Z,63.49
2018-11-06T07:23:00.172Z,61.92
2018-11-06T07:25:29.526Z,59.90
2018-11-06T07:27:58.859Z,58.01
2018-11-06T07:30:28.152Z,56.64
2018-11-06T07:32:57.519Z,56.79
2018-11-06T07:35:26.967Z,56.11
2018-11-06T07:37:56.266Z,55.17
2018-11-06T07:40:25.675Z,55.25
2018-11-06T07:42:55.729Z,51.86
2018-11-06T07:45:25.188Z,50.14
2018-11-06T07:47:54.552Z,48.15
2018-11-06T07:50:23.953Z,47.44
2018-11-06T07:52:53.217Z,46.60
2018-11-06T07:55:22.566Z,45.11
2018-11-06T07:57:51.887Z,43.29
2018-11-06T08:00:24.691Z,42.25
2018-11-06T08:02:54.103Z,42.22
2018-11-06T08:05:23.434Z,40.58
2018-11-06T08:07:53.243Z,41.16
2018-11-06T08:10:22.666Z,41.68
2018-11-06T08:12:53.288Z,40.45
2018-11-06T08:15:22.875Z,42.66
2018-11-06T08:17:52.253Z,41.53
2018-11-06T08:20:21.953Z,41.18
2018-11-06T08:22:51.451Z,40.93
2018-11-06T08:25:20.772Z,40.93
2018-11-06T08:27:50.151Z,40.43
2018-11-06T08:30:19.525Z,39.32
2018-11-06T08:32:49.046Z,40.54
2018-11-06T08:35:18.760Z,39.67
2018-11-06T08:37:48.267Z,36.24
2018-11-06T08:40:18.334Z,36.79
2018-11-06T08:42:47.705Z,38.73
2018-11-06T08:45:17.952Z,36.72
2018-11-06T08:47:47.381Z,35.35
2018-11-06T08:50:18.154Z,35.55
2018-11-06T08:52:47.591Z,35.09
2018-11-06T08:55:17.481Z,36.97
2018-11-06T08:57:47.028Z,39.18
2018-11-06T09:00:17.679Z,37.81
2018-11-06T09:02:47.972Z,37.13
2018-11-06T09:05:17.913Z,37.16
2018-11-06T09:07:47.551Z,34.63
2018-11-06T09:10:17.319Z,35.62
2018-11-06T09:12:46.795Z,34.47
2018-11-06T09:15:17.033Z,35.72
2018-11-06T09:17:46.466Z,34.90
2018-11-06T09:20:16.757Z,31.87
2018-11-06T09:22:46.453Z,32.18
2018-11-06T09:25:17.460Z,30.81
2018-11-06T09:27:46.780Z,32.13
2018-11-06T09:30:17.662Z,31.52
2018-11-06T09:32:47.100Z,32.58
2018-11-06T09:35:16.761Z,31.17
2018-11-06T09:37:46.420Z,29.38
2018-11-06T09:40:17.150Z,32.55
2018-11-06T09:42:46.613Z,31.87
2018-11-06T09:45:16.216Z,29.83
2018-11-06T09:47:45.624Z,32.09
2018-11-06T09:50:16.880Z,32.15
2018-11-06T09:52:47.002Z,34.21
2018-11-06T09:55:17.113Z,34.62
2018-11-06T09:57:47.044Z,36.80
2018-11-06T10:00:17.933Z,37.73
2018-11-06T10:02:47.244Z,38.56
2018-11-06T10:05:16.948Z,41.98
2018-11-06T10:07:46.334Z,42.27
2018-11-06T10:10:17.035Z,41.97
2018-11-06T10:12:47.168Z,42.06
2018-11-06T10:15:17.968Z,44.61
2018-11-06T10:17:48.220Z,42.65
2018-11-06T10:20:18.562Z,42.75
2018-11-06T10:22:48.018Z,38.61
2018-11-06T10:25:17.386Z,37.54
2018-11-06T10:27:46.851Z,41.20
2018-11-06T10:30:17.613Z,44.07
2018-11-06T10:32:47.378Z,42.14
2018-11-06T10:35:16.702Z,39.46
2018-11-06T10:37:46.032Z,34.67
2018-11-06T10:40:18.021Z,33.19
2018-11-06T10:42:47.882Z,33.84
2018-11-06T10:45:18.564Z,34.45
2018-11-06T10:47:48.516Z,34.03
2018-11-06T10:50:18.679Z,35.18
2018-11-06T10:52:48.677Z,36.22
2018-11-06T10:55:18.027Z,37.21
2018-11-06T10:57:47.427Z,38.04
2018-11-06T11:00:21.812Z,40.23
2018-11-06T11:02:56.322Z,43.70
2018-11-06T11:05:27.602Z,43.91
2018-11-06T11:07:56.979Z,43.12
2018-11-06T11:10:26.458Z,43.57
2018-11-06T11:12:57.124Z,44.09
2018-11-06T11:15:28.159Z,44.95
2018-11-06T11:18:00.025Z,46.49
2018-11-06T11:20:30.446Z,44.71
2018-11-06T11:22:59.816Z,45.00
2018-11-06T11:25:29.391Z,45.64
2018-11-06T11:27:58.770Z,45.06
2018-11-06T11:30:28.289Z,43.60
2018-11-06T11:32:57.636Z,43.97
2018-11-06T11:35:26.963Z,43.35
2018-11-06T11:37:56.262Z,44.20
2018-11-06T11:40:25.590Z,40.13
2018-11-06T11:42:54.975Z,39.82
2018-11-06T11:45:24.315Z,39.60
2018-11-06T11:47:53.718Z,39.07
2018-11-06T11:50:23.037Z,39.01
2018-11-06T11:52:52.319Z,37.07
2018-11-06T11:55:21.720Z,37.97
2018-11-06T11:57:50.980Z,37.38
2018-11-06T12:00:21.166Z,35.02
2018-11-06T12:02:50.569Z,33.92
2018-11-06T12:05:20.764Z,31.34
2018-11-06T12:07:50.235Z,31.50
2018-11-06T12:10:19.882Z,29.47
2018-11-06T12:12:49.205Z,29.92
2018-11-06T12:15:18.854Z,29.35
2018-11-06T12:17:48.457Z,29.67
2018-11-06T12:20:18.636Z,29.59
2018-11-06T12:22:48.040Z,29.84
2018-11-06T12:25:17.696Z,29.57
2018-11-06T12:27:46.781Z,30.57
2018-11-06T12:30:17.303Z,32.22
2018-11-06T12:32:47.791Z,32.65
2018-11-06T12:35:17.192Z,33.18
2018-11-06T12:37:46.537Z,34.94
2018-11-06T12:40:16.244Z,34.48
2018-11-06T12:42:45.676Z,33.86
2018-11-06T12:45:16.442Z,34.20
2018-11-06T12:47:46.557Z,33.81
2018-11-06T12:50:16.471Z,33.33
2018-11-06T12:52:45.933Z,32.49
2018-11-06T12:55:16.417Z,33.18
2018-11-06T12:57:45.780Z,30.82
2018-11-06T13:00:16.869Z,32.20
2018-11-06T13:02:46.250Z,32.47
2018-11-06T13:05:15.590Z,32.46
2018-11-06T13:07:45.504Z,34.49
2018-11-06T13:10:15.453Z,36.29
2018-11-06T13:12:44.952Z,37.04
2018-11-06T13:15:15.640Z,36.97
2018-11-06T13:17:44.075Z,35.43
2018-11-06T13:20:14.523Z,34.61
2018-11-06T13:22:44.653Z,34.13
2018-11-06T13:25:13.966Z,34.45
2018-11-06T13:27:43.522Z,33.18
2018-11-06T13:30:17.737Z,31.89
2018-11-06T13:32:47.933Z,35.00
2018-11-06T13:35:17.290Z,35.62
2018-11-06T13:37:46.664Z,36.90
2018-11-06T13:40:16.748Z,38.46
2018-11-06T13:42:46.501Z,37.86
2018-11-06T13:45:17.526Z,41.00
2018-11-06T13:47:46.756Z,43.29
2018-11-06T13:50:16.084Z,43.02
2018-11-06T13:52:45.729Z,42.17
2018-11-06T13:55:15.886Z,42.30
2018-11-06T13:57:47.274Z,42.52
2018-11-06T14:00:18.370Z,44.31
2018-11-06T14:02:48.121Z,45.97
2018-11-06T14:05:17.569Z,50.50
2018-11-06T14:07:46.914Z,50.24
2018-11-06T14:10:17.457Z,50.13
2018-11-06T14:12:50.098Z,50.03
2018-11-06T14:15:19.416Z,50.54
2018-11-06T14:17:48.747Z,50.46
2018-11-06T14:20:18.047Z,51.49
2018-11-06T14:22:47.439Z,53.14
2018-11-06T14:25:16.751Z,54.69
2018-11-06T14:27:46.075Z,55.37
2018-11-06T14:30:18.932Z,56.14
2018-11-06T14:32:48.920Z,56.49
2018-11-06T14:35:19.024Z,56.30
2018-11-06T14:37:48.645Z,56.42
2018-11-06T14:40:18.234Z,56.45
2018-11-06T14:42:47.680Z,56.99
2018-11-06T14:45:18.221Z,57.37
2018-11-06T14:47:47.641Z,57.61
2018-11-06T14:50:17.001Z,57.30
2018-11-06T14:52:46.426Z,58.44
2018-11-06T14:55:16.368Z,59.25
2018-11-06T14:57:45.706Z,60.28
2018-11-06T15:00:17.925Z,62.05
2018-11-06T15:02:48.505Z,62.53
2018-11-06T15:05:18.681Z,63.64
2018-11-06T15:07:48.317Z,64.06
2018-11-06T15:10:17.824Z,63.87
2018-11-06T15:12:47.273Z,64.21
2018-11-06T15:15:17.040Z,65.28
2018-11-06T15:17:47.181Z,66.33
2018-11-06T15:20:18.888Z,67.33
2018-11-06T15:22:49.385Z,68.47
2018-11-06T15:25:19.404Z,68.21
2018-11-06T15:27:48.752Z,68.43
2018-11-06T15:30:18.856Z,68.14
2018-11-06T15:32:48.333Z,69.36
2018-11-06T15:35:19.221Z,69.17
2018-11-06T15:37:48.556Z,69.27
2018-11-06T15:40:19.182Z,69.32
2018-11-06T15:42:48.524Z,70.32
2018-11-06T15:45:18.952Z,70.11
2018-11-06T15:47:50.246Z,70.98
2018-11-06T15:50:20.607Z,71.42
2018-11-06T15:52:50.737Z,71.04
2018-11-06T15:55:20.101Z,71.14
2018-11-06T15:57:49.486Z,71.92
2018-11-06T16:00:21.287Z,71.55
2018-11-06T16:02:50.839Z,71.21
2018-11-06T16:05:20.204Z,71.55
2018-11-06T16:07:50.298Z,72.30
2018-11-06T16:10:21.295Z,72.93
2018-11-06T16:12:50.671Z,72.64
2018-11-06T16:15:20.747Z,72.85
2018-11-06T16:17:50.111Z,72.88
2018-11-06T16:20:20.522Z,72.48
2018-11-06T16:22:49.975Z,72.50
2018-11-06T16:25:19.865Z,72.25
2018-11-06T16:27:49.924Z,71.98
2018-11-06T16:30:20.915Z,71.99
2018-11-06T16:32:50.573Z,71.47
2018-11-06T16:35:21.280Z,70.63
2018-11-06T16:37:52.319Z,71.41
2018-11-06T16:40:21.665Z,70.87
2018-11-06T16:42:51.046Z,70.66
2018-11-06T16:45:22.222Z,70.73
2018-11-06T16:47:53.057Z,70.65
2018-11-06T16:50:22.754Z,70.97
2018-11-06T16:52:53.547Z,70.93
2018-11-06T16:55:22.955Z,70.84
2018-11-06T16:57:53.450Z,71.48
2018-11-06T17:00:24.554Z,70.71
2018-11-06T17:02:53.805Z,71.17
2018-11-06T17:05:23.654Z,70.68
2018-11-06T17:07:53.331Z,70.87
2018-11-06T17:10:22.842Z,70.81
2018-11-06T17:12:52.184Z,70.67
2018-11-06T17:15:22.599Z,70.61
2018-11-06T17:17:52.935Z,70.42
2018-11-06T17:20:24.726Z,70.29
2018-11-06T17:22:54.020Z,70.42
2018-11-06T17:25:23.976Z,70.23
2018-11-06T17:27:53.766Z,70.48
2018-11-06T17:30:23.121Z,70.78
2018-11-06T17:32:52.708Z,71.36
2018-11-06T17:35:22.255Z,71.15
2018-11-06T17:37:51.606Z,71.23
2018-11-06T17:40:21.706Z,71.43
2018-11-06T17:42:51.109Z,71.70
2018-11-06T17:45:21.889Z,71.05
2018-11-06T17:47:51.254Z,71.15
2018-11-06T17:50:21.093Z,70.88
2018-11-06T17:52:50.411Z,70.74
2018-11-06T17:55:20.811Z,71.12
2018-11-06T17:57:50.119Z,71.25
2018-11-06T18:00:21.836Z,71.19
2018-11-06T18:02:51.272Z,71.29
2018-11-06T18:05:23.056Z,71.67
2018-11-06T18:07:52.644Z,72.07
2018-11-06T18:10:22.325Z,71.62
2018-11-06T18:12:52.663Z,71.46
2018-11-06T18:15:21.986Z,71.25
2018-11-06T18:17:51.526Z,71.34
2018-11-06T18:20:20.701Z,71.65
2018-11-06T18:22:50.016Z,71.90
2018-11-06T18:25:19.452Z,72.45
2018-11-06T18:27:48.741Z,72.05
2018-11-06T18:30:19.289Z,71.18
2018-11-06T18:32:48.672Z,71.40
2018-11-06T18:35:18.793Z,71.68
2018-11-06T18:37:48.189Z,71.91
2018-11-06T18:40:19.205Z,72.36
2018-11-06T18:42:50.485Z,72.35
2018-11-06T18:45:19.949Z,71.71
2018-11-06T18:47:49.291Z,72.12
2018-11-06T18:50:19.676Z,71.52
2018-11-06T18:52:50.139Z,72.07
2018-11-06T18:55:19.821Z,71.81
2018-11-06T18:57:50.806Z,72.34
2018-11-06T19:00:21.749Z,72.22
2018-11-06T19:02:53.105Z,72.55
2018-11-06T19:05:23.554Z,72.44
2018-11-06T19:07:52.950Z,73.25
2018-11-06T19:10:22.608Z,72.85
2018-11-06T19:12:52.010Z,71.95
2018-11-06T19:15:22.663Z,72.46
2018-11-06T19:17:52.267Z,72.36
2018-11-06T19:20:21.689Z,72.79
2018-11-06T19:22:51.055Z,72.23
2018-11-06T19:25:20.665Z,72.96
2018-11-06T19:27:50.082Z,73.74
2018-11-06T19:30:20.572Z,73.50
2018-11-06T19:32:50.556Z,72.94
2018-11-06T19:35:19.939Z,72.95
2018-11-06T19:37:49.931Z,73.66
2018-11-06T19:40:19.634Z,74.66
2018-11-06T19:42:49.537Z,74.59
2018-11-06T19:45:19.295Z,74.08
2018-11-06T19:47:48.900Z,73.80
2018-11-06T19:50:19.432Z,74.00
2018-11-06T19:52:48.922Z,73.79
2018-11-06T19:55:18.843Z,74.35
2018-11-06T19:57:48.252Z,75.66
2018-11-06T20:00:20.572Z,75.78
2018-11-06T20:02:51.015Z,76.27
2018-11-06T20:05:20.638Z,75.25
2018-11-06T20:07:50.908Z,74.82
2018-11-06T20:10:21.660Z,75.24
2018-11-06T20:12:52.273Z,75.47
2018-11-06T20:15:21.673Z,75.77
2018-11-06T20:17:51.177Z,75.41
2018-11-06T20:20:23.855Z,75.24
2018-11-06T20:22:53.409Z,75.32
2018-11-06T20:25:22.804Z,75.35
2018-11-06T20:27:52.240Z,75.08
2018-11-06T20:30:23.111Z,75.48
2018-11-06T20:32:52.961Z,75.59
2018-11-06T20:35:22.713Z,76.34
2018-11-06T20:37:52.512Z,76.06
2018-11-06T20:40:24.693Z,75.74
2018-11-06T20:42:54.331Z,75.54
2018-11-06T20:45:24.521Z,75.81
2018-11-06T20:47:54.239Z,75.91
2018-11-06T20:50:25.114Z,75.62
2018-11-06T20:52:54.766Z,75.79
2018-11-06T20:55:25.141Z,75.72
2018-11-06T20:57:55.282Z,75.85
2018-11-06T21:00:29.417Z,76.14
2018-11-06T21:03:00.323Z,76.27
2018-11-06T21:05:29.847Z,76.40
2018-11-06T21:07:59.959Z,76.21
2018-11-06T21:10:31.202Z,76.09
2018-11-06T21:13:00.784Z,76.00
2018-11-06T21:15:30.147Z,76.13
2018-11-06T21:17:59.661Z,76.20
2018-11-06T21:20:29.008Z,76.27
2018-11-06T21:22:58.367Z,76.16
2018-11-06T21:25:27.824Z,76.52
2018-11-06T21:27:57.454Z,76.77
2018-11-06T21:30:27.238Z,77.07
2018-11-06T21:32:57.785Z,76.44
2018-11-06T21:35:28.207Z,76.72
2018-11-06T21:37:58.529Z,76.56
2018-11-06T21:40:28.188Z,76.92
2018-11-06T21:42:57.790Z,76.46
2018-11-06T21:45:27.261Z,76.24
2018-11-06T21:47:56.988Z,75.89
2018-11-06T21:50:26.384Z,75.91
2018-11-06T21:52:56.055Z,76.37
2018-11-06T21:55:25.501Z,76.10
2018-11-06T21:57:54.911Z,75.81
2018-11-06T22:00:24.344Z,76.15
2018-11-06T22:02:53.894Z,76.64
2018-11-06T22:05:23.489Z,76.52
2018-11-06T22:07:52.899Z,76.27
2018-11-06T22:10:22.870Z,76.47
2018-11-06T22:12:52.324Z,76.53
2018-11-06T22:15:21.762Z,76.34
2018-11-06T22:17:51.140Z,76.50
2018-11-06T22:20:20.838Z,77.04
2018-11-06T22:22:50.609Z,76.92
2018-11-06T22:25:20.033Z,76.29
2018-11-06T22:27:49.344Z,76.30
2018-11-06T22:30:18.748Z,76.52
2018-11-06T22:32:48.696Z,76.68
2018-11-06T22:35:18.721Z,77.46
2018-11-06T22:37:48.332Z,77.02
2018-11-06T22:40:18.426Z,77.21
2018-11-06T22:42:47.878Z,76.39
2018-11-06T22:45:17.944Z,76.31
2018-11-06T22:47:47.391Z,76.48
2018-11-06T22:50:17.764Z,76.37
2018-11-06T22:52:47.999Z,76.56
2018-11-06T22:55:17.519Z,77.58
2018-11-06T22:57:46.890Z,76.44
2018-11-06T23:00:23.569Z,76.17
2018-11-06T23:02:52.900Z,75.93
2018-11-06T23:05:24.226Z,76.16
2018-11-06T23:07:58.767Z,76.21
2018-11-06T23:10:28.428Z,76.26
2018-11-06T23:12:57.770Z,76.13
2018-11-06T23:15:27.143Z,76.35
2018-11-06T23:17:56.466Z,76.14
2018-11-06T23:20:25.844Z,75.89
2018-11-06T23:22:55.187Z,76.06
2018-11-06T23:25:24.519Z,76.30
2018-11-06T23:27:53.832Z,75.94
2018-11-06T23:30:23.294Z,75.94
2018-11-06T23:32:53.024Z,76.25
2018-11-06T23:35:22.359Z,75.62
2018-11-06T23:37:51.956Z,75.88
2018-11-06T23:40:21.303Z,76.33
2018-11-06T23:42:50.654Z,75.65
2018-11-06T23:45:19.939Z,75.40
2018-11-06T23:47:49.242Z,75.21
2018-11-06T23:50:18.595Z,74.96
2018-11-06T23:52:47.879Z,75.41
2018-11-06T23:55:17.354Z,75.62
2018-11-06T23:57:46.659Z,74.36
